sensor_id;sensor_type;location;lat;lon;timestamp;P1;durP1;ratioP1;P2;durP2;ratioP2
66761;SDS011;53672;48.176;16.338;2023-02-23T00:03:29;28.40;;;11.90;;
66761;SDS011;53672;48.176;16.338;2023-02-23T00:08:31;26.75;;;12.40;;
66761;SDS011;53672;48.176;16.338;2023-02-23T00:13:32;26.40;;;11.87;;
66761;SDS011;53672;48.176;16.338;2023-02-23T00:18:33;29.33;;;12.88;;
66761;SDS011;53672;48.176;16.338;2023-02-23T00:23:35;28.17;;;12.60;;
66761;SDS011;53672;48.176;16.338;2023-02-23T00:28:36;28.20;;;12.57;;
66761;SDS011;53672;48.176;16.338;2023-02-23T00:33:36;27.97;;;12.50;;
66761;SDS011;53672;48.176;16.338;2023-02-23T00:38:39;26.30;;;12.63;;
66761;SDS011;53672;48.176;16.338;2023-02-23T00:43:40;30.23;;;12.95;;
66761;SDS011;53672;48.176;16.338;2023-02-23T00:48:41;25.97;;;12.10;;
66761;SDS011;53672;48.176;16.338;2023-02-23T00:53:43;29.70;;;12.77;;
66761;SDS011;53672;48.176;16.338;2023-02-23T00:58:44;27.08;;;12.68;;
66761;SDS011;53672;48.176;16.338;2023-02-23T01:03:44;28.25;;;12.18;;
66761;SDS011;53672;48.176;16.338;2023-02-23T01:08:48;26.13;;;11.67;;
66761;SDS011;53672;48.176;16.338;2023-02-23T01:13:50;30.30;;;12.53;;
66761;SDS011;53672;48.176;16.338;2023-02-23T01:18:52;25.98;;;12.00;;
66761;SDS011;53672;48.176;16.338;2023-02-23T01:23:55;31.00;;;13.50;;
66761;SDS011;53672;48.176;16.338;2023-02-23T01:28:56;26.87;;;12.43;;
66761;SDS011;53672;48.176;16.338;2023-02-23T01:34:00;28.50;;;12.73;;
66761;SDS011;53672;48.176;16.338;2023-02-23T01:39:03;27.13;;;11.93;;
66761;SDS011;53672;48.176;16.338;2023-02-23T01:44:06;31.70;;;13.13;;
66761;SDS011;53672;48.176;16.338;2023-02-23T01:49:28;30.05;;;12.55;;
66761;SDS011;53672;48.176;16.338;2023-02-23T01:54:34;27.77;;;12.80;;
66761;SDS011;53672;48.176;16.338;2023-02-23T01:59:38;28.10;;;13.45;;
66761;SDS011;53672;48.176;16.338;2023-02-23T02:04:41;32.43;;;14.07;;
66761;SDS011;53672;48.176;16.338;2023-02-23T02:09:44;30.13;;;12.82;;
66761;SDS011;53672;48.176;16.338;2023-02-23T02:14:47;28.88;;;12.35;;
66761;SDS011;53672;48.176;16.338;2023-02-23T02:25:24;33.33;;;14.00;;
66761;SDS011;53672;48.176;16.338;2023-02-23T02:30:47;31.77;;;13.18;;
66761;SDS011;53672;48.176;16.338;2023-02-23T02:41:51;31.42;;;13.57;;
66761;SDS011;53672;48.176;16.338;2023-02-23T02:47:00;32.73;;;13.97;;
66761;SDS011;53672;48.176;16.338;2023-02-23T02:52:07;31.60;;;13.68;;
66761;SDS011;53672;48.176;16.338;2023-02-23T02:57:16;31.17;;;13.90;;
66761;SDS011;53672;48.176;16.338;2023-02-23T03:02:19;32.30;;;14.00;;
66761;SDS011;53672;48.176;16.338;2023-02-23T03:07:24;29.25;;;13.20;;
66761;SDS011;53672;48.176;16.338;2023-02-23T03:12:32;33.73;;;14.03;;
66761;SDS011;53672;48.176;16.338;2023-02-23T03:17:42;29.75;;;12.95;;
66761;SDS011;53672;48.176;16.338;2023-02-23T03:22:46;31.65;;;13.45;;
66761;SDS011;53672;48.176;16.338;2023-02-23T03:27:55;34.50;;;13.32;;
66761;SDS011;53672;48.176;16.338;2023-02-23T03:33:03;36.08;;;15.10;;
66761;SDS011;53672;48.176;16.338;2023-02-23T03:38:11;32.23;;;13.87;;
66761;SDS011;53672;48.176;16.338;2023-02-23T03:43:19;32.65;;;14.30;;
66761;SDS011;53672;48.176;16.338;2023-02-23T03:48:24;29.60;;;13.95;;
66761;SDS011;53672;48.176;16.338;2023-02-23T03:53:28;30.02;;;15.02;;
66761;SDS011;53672;48.176;16.338;2023-02-23T03:58:35;30.20;;;13.52;;
66761;SDS011;53672;48.176;16.338;2023-02-23T04:03:39;31.13;;;13.77;;
66761;SDS011;53672;48.176;16.338;2023-02-23T04:08:43;29.08;;;12.93;;
66761;SDS011;53672;48.176;16.338;2023-02-23T04:13:48;29.98;;;12.80;;
66761;SDS011;53672;48.176;16.338;2023-02-23T04:18:53;26.25;;;11.60;;
66761;SDS011;53672;48.176;16.338;2023-02-23T04:23:54;31.13;;;12.50;;
66761;SDS011;53672;48.176;16.338;2023-02-23T04:28:56;28.27;;;12.33;;
66761;SDS011;53672;48.176;16.338;2023-02-23T04:33:56;27.50;;;11.10;;
66761;SDS011;53672;48.176;16.338;2023-02-23T04:38:57;27.48;;;12.20;;
66761;SDS011;53672;48.176;16.338;2023-02-23T04:43:59;28.98;;;12.38;;
66761;SDS011;53672;48.176;16.338;2023-02-23T04:48:59;27.43;;;11.83;;
66761;SDS011;53672;48.176;16.338;2023-02-23T04:54:00;27.37;;;12.60;;
66761;SDS011;53672;48.176;16.338;2023-02-23T04:59:02;30.65;;;12.13;;
66761;SDS011;53672;48.176;16.338;2023-02-23T05:04:02;33.60;;;13.10;;
66761;SDS011;53672;48.176;16.338;2023-02-23T05:09:03;31.43;;;13.83;;
66761;SDS011;53672;48.176;16.338;2023-02-23T05:14:05;33.40;;;14.13;;
66761;SDS011;53672;48.176;16.338;2023-02-23T05:19:06;33.58;;;13.43;;
66761;SDS011;53672;48.176;16.338;2023-02-23T05:24:06;34.00;;;14.98;;
66761;SDS011;53672;48.176;16.338;2023-02-23T05:29:09;31.93;;;14.03;;
66761;SDS011;53672;48.176;16.338;2023-02-23T05:34:10;34.70;;;14.15;;
66761;SDS011;53672;48.176;16.338;2023-02-23T05:39:10;31.90;;;14.47;;
66761;SDS011;53672;48.176;16.338;2023-02-23T05:44:12;32.23;;;14.90;;
66761;SDS011;53672;48.176;16.338;2023-02-23T05:49:12;31.42;;;14.32;;
66761;SDS011;53672;48.176;16.338;2023-02-23T05:54:13;36.70;;;15.00;;
66761;SDS011;53672;48.176;16.338;2023-02-23T05:59:15;32.83;;;14.43;;
66761;SDS011;53672;48.176;16.338;2023-02-23T06:04:15;35.03;;;14.20;;
66761;SDS011;53672;48.176;16.338;2023-02-23T06:09:16;34.20;;;14.53;;
66761;SDS011;53672;48.176;16.338;2023-02-23T06:14:18;33.15;;;14.32;;
66761;SDS011;53672;48.176;16.338;2023-02-23T06:19:18;32.60;;;14.97;;
66761;SDS011;53672;48.176;16.338;2023-02-23T06:24:19;34.30;;;15.48;;
66761;SDS011;53672;48.176;16.338;2023-02-23T06:29:21;34.00;;;15.27;;
66761;SDS011;53672;48.176;16.338;2023-02-23T06:34:22;35.37;;;15.57;;
66761;SDS011;53672;48.176;16.338;2023-02-23T06:39:22;34.93;;;14.77;;
66761;SDS011;53672;48.176;16.338;2023-02-23T06:44:24;34.17;;;15.15;;
66761;SDS011;53672;48.176;16.338;2023-02-23T06:49:24;36.77;;;16.00;;
66761;SDS011;53672;48.176;16.338;2023-02-23T06:54:25;33.40;;;15.37;;
66761;SDS011;53672;48.176;16.338;2023-02-23T06:59:27;32.23;;;15.03;;
66761;SDS011;53672;48.176;16.338;2023-02-23T07:04:27;33.60;;;14.73;;
66761;SDS011;53672;48.176;16.338;2023-02-23T07:09:28;34.40;;;15.10;;
66761;SDS011;53672;48.176;16.338;2023-02-23T07:14:30;33.07;;;14.43;;
66761;SDS011;53672;48.176;16.338;2023-02-23T07:19:31;33.85;;;16.13;;
66761;SDS011;53672;48.176;16.338;2023-02-23T07:24:31;32.47;;;14.87;;
66761;SDS011;53672;48.176;16.338;2023-02-23T07:29:33;31.65;;;15.05;;
66761;SDS011;53672;48.176;16.338;2023-02-23T07:34:34;33.60;;;15.67;;
66761;SDS011;53672;48.176;16.338;2023-02-23T07:39:34;38.33;;;15.97;;
66761;SDS011;53672;48.176;16.338;2023-02-23T07:44:37;32.40;;;14.90;;
66761;SDS011;53672;48.176;16.338;2023-02-23T07:49:37;35.70;;;15.38;;
66761;SDS011;53672;48.176;16.338;2023-02-23T07:54:38;33.50;;;14.87;;
66761;SDS011;53672;48.176;16.338;2023-02-23T07:59:40;31.70;;;14.57;;
66761;SDS011;53672;48.176;16.338;2023-02-23T08:04:40;31.67;;;15.13;;
66761;SDS011;53672;48.176;16.338;2023-02-23T08:09:41;30.17;;;14.17;;
66761;SDS011;53672;48.176;16.338;2023-02-23T08:14:43;31.07;;;13.73;;
66761;SDS011;53672;48.176;16.338;2023-02-23T08:19:43;26.70;;;13.27;;
66761;SDS011;53672;48.176;16.338;2023-02-23T08:24:44;26.70;;;13.23;;
66761;SDS011;53672;48.176;16.338;2023-02-23T08:29:46;29.43;;;13.57;;
66761;SDS011;53672;48.176;16.338;2023-02-23T08:34:47;28.48;;;13.13;;
66761;SDS011;53672;48.176;16.338;2023-02-23T08:39:47;26.23;;;11.77;;
66761;SDS011;53672;48.176;16.338;2023-02-23T08:44:49;25.90;;;12.67;;
66761;SDS011;53672;48.176;16.338;2023-02-23T08:49:49;26.40;;;13.43;;
66761;SDS011;53672;48.176;16.338;2023-02-23T08:54:50;27.55;;;13.13;;
66761;SDS011;53672;48.176;16.338;2023-02-23T08:59:52;29.63;;;12.87;;
66761;SDS011;53672;48.176;16.338;2023-02-23T09:04:52;23.10;;;12.20;;
66761;SDS011;53672;48.176;16.338;2023-02-23T09:09:53;22.60;;;12.07;;
66761;SDS011;53672;48.176;16.338;2023-02-23T09:14:55;21.35;;;12.05;;
66761;SDS011;53672;48.176;16.338;2023-02-23T09:19:56;23.73;;;12.18;;
66761;SDS011;53672;48.176;16.338;2023-02-23T09:24:57;23.83;;;11.90;;
66761;SDS011;53672;48.176;16.338;2023-02-23T09:29:59;24.03;;;12.90;;
66761;SDS011;53672;48.176;16.338;2023-02-23T09:34:59;22.40;;;12.70;;
66761;SDS011;53672;48.176;16.338;2023-02-23T09:40:00;21.63;;;12.03;;
66761;SDS011;53672;48.176;16.338;2023-02-23T09:45:04;22.07;;;12.07;;
66761;SDS011;53672;48.176;16.338;2023-02-23T09:50:16;22.05;;;12.52;;
66761;SDS011;53672;48.176;16.338;2023-02-23T09:55:22;21.47;;;12.53;;
66761;SDS011;53672;48.176;16.338;2023-02-23T10:00:25;23.85;;;13.63;;
66761;SDS011;53672;48.176;16.338;2023-02-23T10:05:25;22.33;;;13.20;;
66761;SDS011;53672;48.176;16.338;2023-02-23T10:10:31;21.90;;;13.85;;
66761;SDS011;53672;48.176;16.338;2023-02-23T10:15:41;21.48;;;13.30;;
66761;SDS011;53672;48.176;16.338;2023-02-23T10:20:48;22.17;;;13.87;;
66761;SDS011;53672;48.176;16.338;2023-02-23T10:25:53;23.30;;;14.73;;
66761;SDS011;53672;48.176;16.338;2023-02-23T10:30:58;23.52;;;14.68;;
66761;SDS011;53672;48.176;16.338;2023-02-23T10:36:01;24.63;;;15.63;;
66761;SDS011;53672;48.176;16.338;2023-02-23T10:41:11;22.15;;;13.90;;
66761;SDS011;53672;48.176;16.338;2023-02-23T10:46:16;23.27;;;14.93;;
66761;SDS011;53672;48.176;16.338;2023-02-23T10:51:21;23.90;;;15.15;;
66761;SDS011;53672;48.176;16.338;2023-02-23T10:56:25;24.77;;;16.23;;
66761;SDS011;53672;48.176;16.338;2023-02-23T11:01:32;24.37;;;15.80;;
66761;SDS011;53672;48.176;16.338;2023-02-23T11:06:35;24.88;;;15.80;;
66761;SDS011;53672;48.176;16.338;2023-02-23T11:11:36;26.48;;;16.15;;
66761;SDS011;53672;48.176;16.338;2023-02-23T11:16:38;26.63;;;15.70;;
66761;SDS011;53672;48.176;16.338;2023-02-23T11:21:39;26.80;;;15.60;;
66761;SDS011;53672;48.176;16.338;2023-02-23T11:26:39;25.80;;;15.73;;
66761;SDS011;53672;48.176;16.338;2023-02-23T11:31:47;24.13;;;14.88;;
66761;SDS011;53672;48.176;16.338;2023-02-23T11:37:00;26.75;;;16.17;;
66761;SDS011;53672;48.176;16.338;2023-02-23T11:42:11;27.97;;;16.30;;
66761;SDS011;53672;48.176;16.338;2023-02-23T11:47:16;27.38;;;16.17;;
66761;SDS011;53672;48.176;16.338;2023-02-23T11:52:18;29.65;;;17.00;;
66761;SDS011;53672;48.176;16.338;2023-02-23T11:57:21;27.73;;;15.85;;
66761;SDS011;53672;48.176;16.338;2023-02-23T12:02:26;25.38;;;15.13;;
66761;SDS011;53672;48.176;16.338;2023-02-23T12:07:29;28.43;;;15.70;;
66761;SDS011;53672;48.176;16.338;2023-02-23T12:12:41;30.00;;;15.80;;
66761;SDS011;53672;48.176;16.338;2023-02-23T12:17:47;27.05;;;15.85;;
66761;SDS011;53672;48.176;16.338;2023-02-23T12:22:52;29.58;;;16.08;;
66761;SDS011;53672;48.176;16.338;2023-02-23T12:27:59;28.85;;;16.35;;
66761;SDS011;53672;48.176;16.338;2023-02-23T12:33:05;30.73;;;17.03;;
66761;SDS011;53672;48.176;16.338;2023-02-23T12:38:11;29.00;;;16.10;;
66761;SDS011;53672;48.176;16.338;2023-02-23T12:43:20;30.15;;;14.77;;
66761;SDS011;53672;48.176;16.338;2023-02-23T12:48:29;27.42;;;14.27;;
66761;SDS011;53672;48.176;16.338;2023-02-23T12:53:37;27.67;;;15.25;;
66761;SDS011;53672;48.176;16.338;2023-02-23T12:58:41;31.00;;;15.83;;
66761;SDS011;53672;48.176;16.338;2023-02-23T13:04:04;28.58;;;15.25;;
66761;SDS011;53672;48.176;16.338;2023-02-23T13:09:29;30.23;;;15.93;;
66761;SDS011;53672;48.176;16.338;2023-02-23T13:14:41;29.73;;;15.98;;
66761;SDS011;53672;48.176;16.338;2023-02-23T13:19:49;32.95;;;15.70;;
66761;SDS011;53672;48.176;16.338;2023-02-23T13:24:53;31.53;;;15.07;;
66761;SDS011;53672;48.176;16.338;2023-02-23T13:29:57;34.28;;;15.93;;
66761;SDS011;53672;48.176;16.338;2023-02-23T13:34:59;29.47;;;14.80;;
66761;SDS011;53672;48.176;16.338;2023-02-23T13:40:02;31.52;;;14.80;;
66761;SDS011;53672;48.176;16.338;2023-02-23T13:50:50;29.90;;;14.90;;
66761;SDS011;53672;48.176;16.338;2023-02-23T13:55:58;30.30;;;14.93;;
66761;SDS011;53672;48.176;16.338;2023-02-23T14:01:03;32.10;;;15.30;;
66761;SDS011;53672;48.176;16.338;2023-02-23T14:06:11;25.90;;;13.95;;
66761;SDS011;53672;48.176;16.338;2023-02-23T14:11:26;24.97;;;13.37;;
66761;SDS011;53672;48.176;16.338;2023-02-23T14:16:28;25.73;;;13.48;;
66761;SDS011;53672;48.176;16.338;2023-02-23T14:21:31;26.33;;;13.47;;
66761;SDS011;53672;48.176;16.338;2023-02-23T14:26:43;29.17;;;14.27;;
66761;SDS011;53672;48.176;16.338;2023-02-23T14:32:25;24.83;;;13.23;;
66761;SDS011;53672;48.176;16.338;2023-02-23T14:37:31;25.75;;;13.45;;
66761;SDS011;53672;48.176;16.338;2023-02-23T14:42:34;26.17;;;13.00;;
66761;SDS011;53672;48.176;16.338;2023-02-23T14:47:41;28.50;;;13.48;;
66761;SDS011;53672;48.176;16.338;2023-02-23T14:52:46;26.17;;;13.30;;
66761;SDS011;53672;48.176;16.338;2023-02-23T14:57:49;24.98;;;12.95;;
66761;SDS011;53672;48.176;16.338;2023-02-23T15:02:55;24.57;;;12.60;;
66761;SDS011;53672;48.176;16.338;2023-02-23T15:07:59;25.58;;;12.32;;
66761;SDS011;53672;48.176;16.338;2023-02-23T15:13:06;23.58;;;12.18;;
66761;SDS011;53672;48.176;16.338;2023-02-23T15:23:49;25.17;;;12.32;;
66761;SDS011;53672;48.176;16.338;2023-02-23T15:28:50;26.50;;;13.10;;
66761;SDS011;53672;48.176;16.338;2023-02-23T15:33:52;27.63;;;12.30;;
66761;SDS011;53672;48.176;16.338;2023-02-23T15:38:54;25.23;;;13.20;;
66761;SDS011;53672;48.176;16.338;2023-02-23T15:44:00;28.17;;;13.23;;
66761;SDS011;53672;48.176;16.338;2023-02-23T15:49:05;26.33;;;13.13;;
66761;SDS011;53672;48.176;16.338;2023-02-23T15:54:14;24.75;;;12.55;;
66761;SDS011;53672;48.176;16.338;2023-02-23T15:59:19;27.27;;;12.90;;
66761;SDS011;53672;48.176;16.338;2023-02-23T16:04:22;30.70;;;13.13;;
66761;SDS011;53672;48.176;16.338;2023-02-23T16:09:29;30.42;;;13.55;;
66761;SDS011;53672;48.176;16.338;2023-02-23T16:14:31;26.23;;;12.48;;
66761;SDS011;53672;48.176;16.338;2023-02-23T16:19:34;27.27;;;13.05;;
66761;SDS011;53672;48.176;16.338;2023-02-23T16:24:35;28.27;;;13.23;;
66761;SDS011;53672;48.176;16.338;2023-02-23T16:29:38;31.90;;;13.82;;
66761;SDS011;53672;48.176;16.338;2023-02-23T16:34:44;28.10;;;13.00;;
66761;SDS011;53672;48.176;16.338;2023-02-23T16:39:49;31.67;;;14.82;;
66761;SDS011;53672;48.176;16.338;2023-02-23T16:44:50;30.15;;;14.45;;
66761;SDS011;53672;48.176;16.338;2023-02-23T16:49:51;27.40;;;13.77;;
66761;SDS011;53672;48.176;16.338;2023-02-23T16:54:53;30.13;;;13.80;;
66761;SDS011;53672;48.176;16.338;2023-02-23T16:59:54;30.75;;;14.48;;
66761;SDS011;53672;48.176;16.338;2023-02-23T17:04:55;32.20;;;15.07;;
66761;SDS011;53672;48.176;16.338;2023-02-23T17:09:57;29.42;;;13.93;;
66761;SDS011;53672;48.176;16.338;2023-02-23T17:14:58;32.00;;;14.23;;
66761;SDS011;53672;48.176;16.338;2023-02-23T17:19:58;29.98;;;13.98;;
66761;SDS011;53672;48.176;16.338;2023-02-23T17:25:00;31.65;;;13.45;;
66761;SDS011;53672;48.176;16.338;2023-02-23T17:30:02;33.80;;;14.27;;
66761;SDS011;53672;48.176;16.338;2023-02-23T17:35:04;32.30;;;13.90;;
66761;SDS011;53672;48.176;16.338;2023-02-23T17:40:07;29.52;;;14.18;;
66761;SDS011;53672;48.176;16.338;2023-02-23T17:45:10;30.73;;;13.47;;
66761;SDS011;53672;48.176;16.338;2023-02-23T17:50:11;32.67;;;14.00;;
66761;SDS011;53672;48.176;16.338;2023-02-23T17:55:13;32.60;;;14.00;;
66761;SDS011;53672;48.176;16.338;2023-02-23T18:00:15;31.58;;;14.05;;
66761;SDS011;53672;48.176;16.338;2023-02-23T18:05:19;31.95;;;14.85;;
66761;SDS011;53672;48.176;16.338;2023-02-23T18:10:22;28.73;;;13.40;;
66761;SDS011;53672;48.176;16.338;2023-02-23T18:15:22;31.25;;;14.45;;
66761;SDS011;53672;48.176;16.338;2023-02-23T18:20:23;29.57;;;13.47;;
66761;SDS011;53672;48.176;16.338;2023-02-23T18:25:29;29.40;;;13.75;;
66761;SDS011;53672;48.176;16.338;2023-02-23T18:30:31;29.87;;;13.57;;
66761;SDS011;53672;48.176;16.338;2023-02-23T18:35:32;30.70;;;13.63;;
66761;SDS011;53672;48.176;16.338;2023-02-23T18:40:37;29.40;;;13.05;;
66761;SDS011;53672;48.176;16.338;2023-02-23T18:45:40;28.40;;;13.75;;
66761;SDS011;53672;48.176;16.338;2023-02-23T18:50:41;31.10;;;13.35;;
66761;SDS011;53672;48.176;16.338;2023-02-23T18:55:44;29.57;;;13.77;;
66761;SDS011;53672;48.176;16.338;2023-02-23T19:00:46;32.60;;;13.90;;
66761;SDS011;53672;48.176;16.338;2023-02-23T19:05:47;32.58;;;13.75;;
66761;SDS011;53672;48.176;16.338;2023-02-23T19:10:50;30.48;;;13.82;;
66761;SDS011;53672;48.176;16.338;2023-02-23T19:15:51;28.30;;;13.50;;
66761;SDS011;53672;48.176;16.338;2023-02-23T19:20:53;31.27;;;13.45;;
66761;SDS011;53672;48.176;16.338;2023-02-23T19:25:56;32.90;;;14.27;;
66761;SDS011;53672;48.176;16.338;2023-02-23T19:31:01;31.60;;;14.05;;
66761;SDS011;53672;48.176;16.338;2023-02-23T19:36:03;32.70;;;14.13;;
66761;SDS011;53672;48.176;16.338;2023-02-23T19:41:08;30.33;;;13.43;;
66761;SDS011;53672;48.176;16.338;2023-02-23T19:46:11;28.90;;;14.23;;
66761;SDS011;53672;48.176;16.338;2023-02-23T19:51:14;29.37;;;14.20;;
66761;SDS011;53672;48.176;16.338;2023-02-23T19:56:17;31.23;;;13.63;;
66761;SDS011;53672;48.176;16.338;2023-02-23T20:01:19;29.27;;;13.85;;
66761;SDS011;53672;48.176;16.338;2023-02-23T20:06:23;29.67;;;13.00;;
66761;SDS011;53672;48.176;16.338;2023-02-23T20:11:27;31.85;;;14.48;;
66761;SDS011;53672;48.176;16.338;2023-02-23T20:16:29;31.80;;;14.60;;
66761;SDS011;53672;48.176;16.338;2023-02-23T20:21:30;33.50;;;14.48;;
66761;SDS011;53672;48.176;16.338;2023-02-23T20:26:33;33.10;;;14.95;;
66761;SDS011;53672;48.176;16.338;2023-02-23T20:31:36;32.13;;;13.80;;
66761;SDS011;53672;48.176;16.338;2023-02-23T20:36:38;34.00;;;14.27;;
66761;SDS011;53672;48.176;16.338;2023-02-23T20:41:40;34.37;;;14.53;;
66761;SDS011;53672;48.176;16.338;2023-02-23T20:46:41;33.38;;;14.40;;
66761;SDS011;53672;48.176;16.338;2023-02-23T20:51:43;33.03;;;15.07;;
66761;SDS011;53672;48.176;16.338;2023-02-23T20:56:47;31.45;;;14.77;;
66761;SDS011;53672;48.176;16.338;2023-02-23T21:01:48;34.42;;;15.60;;
66761;SDS011;53672;48.176;16.338;2023-02-23T21:06:50;33.33;;;14.50;;
66761;SDS011;53672;48.176;16.338;2023-02-23T21:11:54;35.78;;;15.05;;
66761;SDS011;53672;48.176;16.338;2023-02-23T21:16:55;30.30;;;14.67;;
66761;SDS011;53672;48.176;16.338;2023-02-23T21:21:56;32.50;;;14.60;;
66761;SDS011;53672;48.176;16.338;2023-02-23T21:27:00;31.60;;;15.00;;
66761;SDS011;53672;48.176;16.338;2023-02-23T21:32:02;35.57;;;14.63;;
66761;SDS011;53672;48.176;16.338;2023-02-23T21:37:02;34.80;;;14.82;;
66761;SDS011;53672;48.176;16.338;2023-02-23T21:42:04;32.87;;;14.90;;
66761;SDS011;53672;48.176;16.338;2023-02-23T21:47:06;34.65;;;15.48;;
66761;SDS011;53672;48.176;16.338;2023-02-23T21:52:06;34.83;;;16.00;;
66761;SDS011;53672;48.176;16.338;2023-02-23T21:57:09;34.60;;;15.60;;
66761;SDS011;53672;48.176;16.338;2023-02-23T22:02:10;36.47;;;15.30;;
66761;SDS011;53672;48.176;16.338;2023-02-23T22:07:10;33.83;;;15.93;;
66761;SDS011;53672;48.176;16.338;2023-02-23T22:12:12;36.33;;;16.07;;
66761;SDS011;53672;48.176;16.338;2023-02-23T22:17:13;33.50;;;15.32;;
66761;SDS011;53672;48.176;16.338;2023-02-23T22:22:13;33.83;;;15.40;;
66761;SDS011;53672;48.176;16.338;2023-02-23T22:27:15;33.20;;;15.33;;
66761;SDS011;53672;48.176;16.338;2023-02-23T22:32:16;34.67;;;15.30;;
66761;SDS011;53672;48.176;16.338;2023-02-23T22:37:16;37.87;;;15.57;;
66761;SDS011;53672;48.176;16.338;2023-02-23T22:42:18;35.60;;;16.40;;
66761;SDS011;53672;48.176;16.338;2023-02-23T22:47:18;35.38;;;16.25;;
66761;SDS011;53672;48.176;16.338;2023-02-23T22:52:19;35.83;;;16.13;;
66761;SDS011;53672;48.176;16.338;2023-02-23T22:57:21;38.17;;;16.83;;
66761;SDS011;53672;48.176;16.338;2023-02-23T23:02:21;35.23;;;17.00;;
66761;SDS011;53672;48.176;16.338;2023-02-23T23:07:22;39.42;;;16.50;;
66761;SDS011;53672;48.176;16.338;2023-02-23T23:12:24;40.83;;;17.13;;
66761;SDS011;53672;48.176;16.338;2023-02-23T23:17:25;39.60;;;16.73;;
66761;SDS011;53672;48.176;16.338;2023-02-23T23:22:26;36.05;;;16.98;;
66761;SDS011;53672;48.176;16.338;2023-02-23T23:27:28;38.03;;;16.90;;
66761;SDS011;53672;48.176;16.338;2023-02-23T23:32:28;39.42;;;16.27;;
66761;SDS011;53672;48.176;16.338;2023-02-23T23:37:29;34.67;;;16.20;;
66761;SDS011;53672;48.176;16.338;2023-02-23T23:42:31;37.43;;;16.17;;
66761;SDS011;53672;48.176;16.338;2023-02-23T23:47:31;38.38;;;16.13;;
66761;SDS011;53672;48.176;16.338;2023-02-23T23:52:32;37.83;;;16.67;;
66761;SDS011;53672;48.176;16.338;2023-02-23T23:57:34;37.43;;;16.63;;
